Time;durP1;ratioP1;P1;durP2;ratioP2;P2;SDS_P1;SDS_P2;PMS_P1;PMS_P2;Temp;Humidity;BMP_temperature;BMP_pressure;BME280_temperature;BME280_humidity;BME280_pressure;Samples;Min_cycle;Max_cycle;Signal;HPM_P1;HPM_P2
2021/10/28 00:13:14;;;;;;;20.05;9.63;;;8.80;99.90;;;;;;5008559;28;20219;-73
2021/10/28 00:15:53;;;;;;;14.43;9.15;;;8.50;99.90;;;;;;5032996;28;20224;-74
2021/10/28 00:18:27;;;;;;;18.80;11.18;;;8.40;99.90;;;;;;5034999;28;20561;-74
2021/10/28 00:20:56;;;;;;;19.52;11.68;;;8.40;99.90;;;;;;5036477;28;20273;-74
2021/10/28 00:23:23;;;;;;;18.23;11.25;;;8.40;99.90;;;;;;5036363;28;20262;-74
2021/10/28 00:25:50;;;;;;;19.10;11.52;;;8.40;99.90;;;;;;5036401;28;20684;-74
2021/10/28 00:28:18;;;;;;;15.77;9.77;;;8.40;99.90;;;;;;5036222;28;20295;-74
2021/10/28 00:30:46;;;;;;;17.13;10.55;;;8.50;99.90;;;;;;5036121;28;20224;-74
2021/10/28 00:33:13;;;;;;;17.75;11.00;;;8.50;99.90;;;;;;5036131;28;20208;-74
2021/10/28 00:35:39;;;;;;;17.02;11.10;;;8.60;99.90;;;;;;5036214;28;20561;-74
2021/10/28 00:38:06;;;;;;;18.13;12.20;;;8.50;99.90;;;;;;5036152;28;20572;-74
2021/10/28 00:40:33;;;;;;;18.95;11.25;;;8.50;99.90;;;;;;5036045;28;20307;-74
2021/10/28 00:43:00;;;;;;;19.65;11.45;;;8.60;99.90;;;;;;5035841;28;20734;-74
2021/10/28 00:45:27;;;;;;;18.63;10.63;;;8.60;99.90;;;;;;5035946;28;20684;-74
2021/10/28 00:47:55;;;;;;;20.80;11.68;;;8.70;99.90;;;;;;5036631;28;20200;-74
2021/10/28 00:50:22;;;;;;;22.17;12.27;;;8.70;99.90;;;;;;5035820;28;20220;-74
2021/10/28 00:52:49;;;;;;;20.70;11.85;;;8.80;99.90;;;;;;5035741;28;20204;-74
2021/10/28 00:55:16;;;;;;;19.90;11.30;;;8.70;99.90;;;;;;5035718;28;20204;-74
2021/10/28 00:57:44;;;;;;;19.58;12.23;;;8.70;99.90;;;;;;5035772;28;20204;-74
2021/10/28 01:00:12;;;;;;;18.48;11.75;;;8.60;99.90;;;;;;5035577;28;20392;-74
2021/10/28 01:02:39;;;;;;;18.10;10.52;;;8.70;99.90;;;;;;5035600;28;20291;-74
2021/10/28 01:05:08;;;;;;;20.10;11.30;;;8.50;99.90;;;;;;5035634;28;20210;-74
2021/10/28 01:07:35;;;;;;;17.67;11.25;;;8.60;99.90;;;;;;5035378;28;20219;-74
2021/10/28 01:10:02;;;;;;;16.60;11.20;;;8.60;99.90;;;;;;5035398;28;20233;-74
2021/10/28 01:12:29;;;;;;;18.30;12.98;;;8.60;99.90;;;;;;5035083;28;20600;-74
2021/10/28 01:14:58;;;;;;;16.88;11.02;;;8.40;99.90;;;;;;5035459;28;20211;-74
2021/10/28 01:17:25;;;;;;;17.05;11.32;;;8.30;99.90;;;;;;5035429;28;20212;-74
2021/10/28 01:19:53;;;;;;;19.52;12.75;;;8.20;99.90;;;;;;5035303;28;20200;-74
2021/10/28 01:22:20;;;;;;;22.10;13.00;;;8.30;99.90;;;;;;5035204;28;20621;-74
2021/10/28 01:24:47;;;;;;;18.92;11.90;;;8.20;99.90;;;;;;5035309;28;20200;-74
2021/10/28 01:27:14;;;;;;;22.85;12.40;;;8.20;99.90;;;;;;5035186;28;20291;-74
2021/10/28 01:29:43;;;;;;;19.30;12.15;;;8.30;99.90;;;;;;5035110;28;20210;-74
2021/10/28 01:32:10;;;;;;;19.98;11.95;;;8.40;99.90;;;;;;5034907;28;20318;-74
2021/10/28 01:34:42;;;;;;;18.70;11.68;;;8.50;99.90;;;;;;5035108;28;20210;-74
2021/10/28 01:37:12;;;;;;;16.85;10.90;;;8.60;99.90;;;;;;5034967;28;20666;-74
2021/10/28 01:39:39;;;;;;;19.10;11.73;;;8.60;99.90;;;;;;5034959;28;20262;-74
2021/10/28 01:42:08;;;;;;;20.48;11.23;;;8.60;99.90;;;;;;5034800;28;20555;-74
2021/10/28 01:44:35;;;;;;;20.52;11.35;;;8.70;99.90;;;;;;5034771;28;20216;-74
2021/10/28 01:47:02;;;;;;;24.00;13.40;;;8.80;99.90;;;;;;5034888;28;20204;-74
2021/10/28 01:49:30;;;;;;;18.70;11.45;;;8.80;99.90;;;;;;5034811;28;20574;-74
2021/10/28 01:51:58;;;;;;;19.65;12.23;;;8.80;99.90;;;;;;5034462;28;20314;-73
2021/10/28 01:54:29;;;;;;;15.80;9.85;;;8.60;99.90;;;;;;5034488;28;20204;-74
2021/10/28 01:56:56;;;;;;;22.52;12.00;;;8.40;99.90;;;;;;5034685;28;20559;-74
2021/10/28 01:59:23;;;;;;;20.40;13.05;;;8.40;99.90;;;;;;5034625;28;20296;-74
2021/10/28 02:01:50;;;;;;;19.17;11.23;;;8.40;99.90;;;;;;5034374;28;20255;-73
2021/10/28 02:04:17;;;;;;;19.85;12.32;;;8.40;99.90;;;;;;5034513;28;20200;-74
2021/10/28 02:06:43;;;;;;;21.40;13.18;;;8.40;99.90;;;;;;5034357;28;20208;-74
2021/10/28 02:09:11;;;;;;;22.58;12.45;;;8.50;99.90;;;;;;5034421;28;20204;-74
2021/10/28 02:11:40;;;;;;;19.25;11.70;;;8.50;99.90;;;;;;5034164;28;20224;-73
2021/10/28 02:14:06;;;;;;;20.05;12.30;;;8.60;99.90;;;;;;5034237;28;20208;-74
2021/10/28 02:16:35;;;;;;;22.02;12.10;;;8.60;99.90;;;;;;5034240;28;20215;-74
2021/10/28 02:19:03;;;;;;;21.50;13.30;;;8.50;99.90;;;;;;5034217;28;20207;-74
2021/10/28 02:21:30;;;;;;;21.25;12.88;;;8.50;99.90;;;;;;5033748;28;20227;-73
2021/10/28 02:23:58;;;;;;;19.75;11.65;;;8.20;99.90;;;;;;5034005;28;20214;-74
2021/10/28 02:26:25;;;;;;;22.60;12.52;;;8.10;99.90;;;;;;5034048;28;20214;-74
2021/10/28 02:28:54;;;;;;;22.20;12.18;;;8.00;99.90;;;;;;5033926;28;20239;-74
2021/10/28 02:31:21;;;;;;;18.52;11.73;;;7.80;99.90;;;;;;5033720;28;20311;-74
2021/10/28 02:33:47;;;;;;;18.85;12.07;;;7.80;99.90;;;;;;5034026;28;20568;-74
2021/10/28 02:36:14;;;;;;;22.38;12.30;;;7.80;99.90;;;;;;5034040;28;20574;-74
2021/10/28 02:38:42;;;;;;;17.00;10.65;;;8.00;99.90;;;;;;5033360;28;20200;-74
2021/10/28 02:41:08;;;;;;;17.58;11.23;;;8.10;99.90;;;;;;5033459;28;20224;-73
2021/10/28 02:43:35;;;;;;;19.73;11.77;;;8.10;99.90;;;;;;5033850;28;20211;-74
2021/10/28 02:46:04;;;;;;;18.90;11.82;;;8.20;99.90;;;;;;5033848;28;20204;-74
2021/10/28 02:48:30;;;;;;;20.52;11.48;;;8.20;99.90;;;;;;5033784;28;20210;-74
2021/10/28 02:50:57;;;;;;;20.15;11.35;;;8.20;99.90;;;;;;5033696;28;20255;-74
2021/10/28 02:53:24;;;;;;;22.00;12.25;;;8.20;99.90;;;;;;5033637;28;20204;-74
2021/10/28 02:55:51;;;;;;;21.10;12.15;;;8.10;99.90;;;;;;5033564;28;20303;-74
2021/10/28 02:58:18;;;;;;;19.90;11.90;;;8.10;99.90;;;;;;5033559;28;20207;-74
2021/10/28 03:00:45;;;;;;;17.50;11.13;;;8.00;99.90;;;;;;5033535;28;20226;-74
2021/10/28 03:03:13;;;;;;;19.73;11.82;;;7.80;99.90;;;;;;5033451;28;20215;-74
2021/10/28 03:05:40;;;;;;;20.05;11.45;;;7.70;99.90;;;;;;5033630;28;20228;-74
2021/10/28 03:08:07;;;;;;;22.70;12.07;;;7.60;99.90;;;;;;5033390;28;20215;-74
2021/10/28 03:10:34;;;;;;;20.75;12.02;;;7.60;99.90;;;;;;5033363;28;20319;-74
2021/10/28 03:13:01;;;;;;;19.50;11.95;;;7.70;99.90;;;;;;5033186;28;20694;-74
2021/10/28 03:15:34;;;;;;;17.98;11.95;;;7.60;99.90;;;;;;5033240;28;20236;-74
2021/10/28 03:18:20;;;;;;;20.42;12.30;;;7.50;99.90;;;;;;5033490;28;20204;-74
2021/10/28 03:26:17;;;;;;;21.77;12.68;;;7.40;99.90;;;;;;5033304;28;20724;-74
2021/10/28 03:28:43;;;;;;;25.85;14.00;;;7.50;99.90;;;;;;5033172;28;20290;-74
2021/10/28 03:31:10;;;;;;;17.98;11.68;;;7.60;99.90;;;;;;5033157;28;20231;-73
2021/10/28 03:33:38;;;;;;;17.63;11.48;;;7.70;99.90;;;;;;5033200;28;20658;-74
2021/10/28 03:36:12;;;;;;;23.08;12.32;;;7.50;99.90;;;;;;5033297;28;20562;-74
2021/10/28 03:38:50;;;;;;;19.52;11.88;;;7.40;99.90;;;;;;5033241;28;20255;-73
2021/10/28 03:58:22;;;;;;;16.08;10.15;;;7.60;99.90;;;;;;5037011;28;20192;-73
2021/10/28 04:06:48;;;;;;;17.33;11.00;;;7.60;99.90;;;;;;5019278;28;20192;-73
2021/10/28 04:20:41;;;;;;;19.70;11.27;;;7.50;99.90;;;;;;5011901;28;20220;-73
2021/10/28 04:28:55;;;;;;;17.90;10.80;;;7.30;99.90;;;;;;5036482;28;20202;-74
2021/10/28 04:31:24;;;;;;;21.35;10.10;;;7.30;99.90;;;;;;5035856;28;20230;-73
2021/10/28 04:33:51;;;;;;;19.50;10.38;;;7.40;99.90;;;;;;5036140;28;20667;-74
2021/10/28 04:36:18;;;;;;;14.52;9.95;;;7.50;99.90;;;;;;5036165;28;20740;-74
2021/10/28 04:38:44;;;;;;;16.63;10.02;;;7.40;99.90;;;;;;5036100;28;20741;-74
2021/10/28 04:41:13;;;;;;;19.40;9.82;;;7.40;99.90;;;;;;5035945;28;20224;-73
2021/10/28 04:43:39;;;;;;;16.13;9.70;;;7.40;99.90;;;;;;5036138;28;20300;-74
2021/10/28 04:46:06;;;;;;;19.15;10.18;;;7.50;99.90;;;;;;5036069;28;20639;-74
2021/10/28 04:48:33;;;;;;;18.27;10.63;;;7.30;99.90;;;;;;5036023;28;20236;-74
2021/10/28 04:51:01;;;;;;;16.38;9.57;;;7.20;99.90;;;;;;5035435;28;20306;-73
2021/10/28 04:53:29;;;;;;;15.68;9.75;;;7.00;99.90;;;;;;5035656;28;20204;-73
2021/10/28 04:55:56;;;;;;;14.10;9.40;;;6.90;99.90;;;;;;5035842;28;20208;-73
2021/10/28 04:58:24;;;;;;;17.35;9.75;;;6.80;99.90;;;;;;5035614;28;20219;-73
2021/10/28 05:00:52;;;;;;;17.38;10.02;;;6.60;99.90;;;;;;5035642;28;20231;-73
2021/10/28 05:03:18;;;;;;;20.02;10.00;;;6.50;99.90;;;;;;5035535;28;20210;-73
2021/10/28 05:05:45;;;;;;;14.05;8.02;;;6.50;99.90;;;;;;5035558;28;20299;-73
2021/10/28 05:08:12;;;;;;;14.23;9.32;;;6.50;99.90;;;;;;5035283;28;20212;-73
2021/10/28 05:10:41;;;;;;;16.45;9.50;;;6.40;99.90;;;;;;5035592;28;20559;-74
2021/10/28 05:13:12;;;;;;;15.45;9.48;;;6.40;99.90;;;;;;5035311;28;20224;-73
2021/10/28 05:15:44;;;;;;;15.65;10.75;;;6.30;99.90;;;;;;5035494;28;20240;-74
2021/10/28 05:18:12;;;;;;;14.50;10.13;;;6.40;99.90;;;;;;5035434;28;20221;-74
2021/10/28 05:20:39;;;;;;;17.73;9.75;;;6.60;99.90;;;;;;5035432;28;20586;-74
2021/10/28 05:23:06;;;;;;;21.05;11.80;;;6.60;99.90;;;;;;5035154;28;20289;-73
2021/10/28 05:25:33;;;;;;;16.15;9.88;;;6.70;99.90;;;;;;5035337;28;20312;-74
2021/10/28 05:28:01;;;;;;;13.80;9.65;;;6.70;99.90;;;;;;5035288;28;20211;-74
2021/10/28 05:30:29;;;;;;;16.65;9.48;;;6.60;99.90;;;;;;5035047;28;20250;-74
2021/10/28 05:32:58;;;;;;;12.23;8.32;;;6.50;99.90;;;;;;5034933;28;20273;-73
2021/10/28 05:35:25;;;;;;;17.95;9.80;;;6.40;99.90;;;;;;5034939;28;20298;-74
2021/10/28 05:37:53;;;;;;;15.20;10.38;;;6.40;99.90;;;;;;5034881;28;20211;-73
2021/10/28 05:40:20;;;;;;;15.85;9.43;;;6.60;99.90;;;;;;5034959;28;20231;-73
2021/10/28 05:42:48;;;;;;;18.60;10.80;;;6.60;99.90;;;;;;5034857;28;20230;-73
2021/10/28 05:45:15;;;;;;;15.50;10.00;;;6.60;99.90;;;;;;5034959;28;20659;-74
2021/10/28 05:47:42;;;;;;;13.57;9.52;;;6.60;99.90;;;;;;5034847;28;20291;-73
2021/10/28 05:50:14;;;;;;;17.60;10.10;;;6.50;99.90;;;;;;5034745;28;20671;-74
2021/10/28 05:52:41;;;;;;;15.98;9.50;;;6.40;99.90;;;;;;5034561;28;20582;-73
2021/10/28 05:55:10;;;;;;;17.65;10.13;;;6.40;99.90;;;;;;5034709;28;20204;-74
2021/10/28 05:57:37;;;;;;;14.23;9.90;;;6.30;99.90;;;;;;5034759;28;20215;-74
2021/10/28 06:00:06;;;;;;;14.75;10.68;;;6.20;99.90;;;;;;5034545;28;20706;-73
2021/10/28 06:02:33;;;;;;;20.02;10.52;;;6.20;99.90;;;;;;5034252;28;20199;-73
2021/10/28 06:05:00;;;;;;;16.95;10.65;;;6.20;99.90;;;;;;5034290;28;20294;-73
2021/10/28 06:07:28;;;;;;;15.48;8.70;;;6.20;99.90;;;;;;5034134;28;20215;-74
2021/10/28 06:09:55;;;;;;;19.33;10.20;;;6.30;99.90;;;;;;5034303;28;20688;-73
2021/10/28 06:12:22;;;;;;;18.42;11.23;;;6.30;99.90;;;;;;5033744;28;20230;-73
2021/10/28 06:14:49;;;;;;;16.30;10.27;;;6.40;99.90;;;;;;5034143;28;20211;-73
2021/10/28 06:17:18;;;;;;;22.25;10.38;;;6.30;99.90;;;;;;5034117;28;20844;-73
2021/10/28 06:19:45;;;;;;;16.50;10.15;;;6.30;99.90;;;;;;5033989;28;20677;-73
2021/10/28 06:22:12;;;;;;;14.80;10.27;;;6.40;99.90;;;;;;5034169;28;20196;-73
2021/10/28 06:24:40;;;;;;;14.80;9.25;;;6.50;99.90;;;;;;5034194;28;20254;-73
2021/10/28 06:27:07;;;;;;;15.02;10.00;;;6.60;99.90;;;;;;5033892;28;20298;-74
2021/10/28 06:29:34;;;;;;;15.45;9.70;;;6.70;99.90;;;;;;5034160;28;20262;-73
2021/10/28 06:32:01;;;;;;;16.13;9.43;;;6.80;99.90;;;;;;5033804;28;20264;-73
2021/10/28 06:34:33;;;;;;;16.42;9.73;;;6.90;99.90;;;;;;5034039;28;20200;-73
2021/10/28 06:37:04;;;;;;;18.83;11.13;;;6.90;99.90;;;;;;5033964;28;20214;-73
2021/10/28 06:39:31;;;;;;;15.73;10.02;;;6.80;99.90;;;;;;5033968;28;20676;-73
2021/10/28 06:41:59;;;;;;;19.35;9.90;;;6.50;99.90;;;;;;5033514;28;20220;-74
2021/10/28 06:44:26;;;;;;;17.75;10.25;;;6.40;99.90;;;;;;5034157;28;20207;-73
2021/10/28 06:46:53;;;;;;;15.45;10.00;;;6.30;99.90;;;;;;5033938;28;20204;-73
2021/10/28 06:49:20;;;;;;;15.68;10.40;;;6.20;99.90;;;;;;5034103;28;20214;-73
2021/10/28 06:51:47;;;;;;;18.63;9.38;;;6.20;99.90;;;;;;5033802;28;20318;-73
2021/10/28 06:54:22;;;;;;;15.43;9.82;;;6.20;99.90;;;;;;5033828;28;20288;-74
2021/10/28 07:02:34;;;;;;;16.17;9.40;;;6.20;99.90;;;;;;4991957;28;20193;-74
2021/10/28 07:05:02;;;;;;;14.65;10.00;;;6.20;99.90;;;;;;5015699;28;20262;-74
2021/10/28 07:07:31;;;;;;;16.75;10.07;;;6.10;99.90;;;;;;5033379;28;20219;-74
2021/10/28 07:10:03;;;;;;;16.73;8.82;;;6.10;99.90;;;;;;5033479;28;20658;-74
2021/10/28 07:12:41;;;;;;;14.07;8.88;;;6.00;99.90;;;;;;5033384;28;20243;-73
2021/10/28 07:15:16;;;;;;;16.73;10.07;;;6.20;99.90;;;;;;5035670;28;20295;-72
2021/10/28 07:17:57;;;;;;;16.08;8.73;;;6.40;99.90;;;;;;5037307;28;20210;-72
2021/10/28 07:20:44;;;;;;;16.77;9.70;;;6.50;99.90;;;;;;5032085;28;20702;-72
2021/10/28 07:23:38;;;;;;;16.60;9.90;;;6.70;99.90;;;;;;5031865;28;20655;-73
2021/10/28 07:26:20;;;;;;;15.88;9.55;;;6.90;99.90;;;;;;5036227;28;20208;-72
2021/10/28 07:34:22;;;;;;;18.35;9.75;;;7.10;99.90;;;;;;5013434;28;20765;-73
2021/10/28 07:40:00;;;;;;;14.15;9.68;;;7.00;99.90;;;;;;5035530;28;20200;-72
2021/10/28 08:15:36;;;;;;;16.95;10.07;;;7.20;99.90;;;;;;5036144;28;20693;-73
2021/10/28 08:18:32;;;;;;;15.93;9.70;;;7.20;99.90;;;;;;5037119;28;20250;-72
2021/10/28 08:21:13;;;;;;;16.60;10.40;;;7.30;99.90;;;;;;5036409;28;20259;-71
2021/10/28 08:23:45;;;;;;;17.33;10.40;;;7.50;99.90;;;;;;5036192;28;20211;-72
2021/10/28 08:29:16;;;;;;;13.57;9.07;;;7.80;99.90;;;;;;5012237;28;20196;-72
2021/10/28 08:31:43;;;;;;;15.90;9.63;;;7.80;99.90;;;;;;5036240;28;20583;-71
2021/10/28 08:34:10;;;;;;;17.35;9.85;;;7.80;99.90;;;;;;5036185;28;20227;-72
2021/10/28 08:36:42;;;;;;;17.80;10.55;;;7.80;99.90;;;;;;5035607;28;20208;-72
2021/10/28 08:39:09;;;;;;;15.13;9.80;;;7.90;99.90;;;;;;5036312;28;20299;-72
2021/10/28 08:41:38;;;;;;;14.98;9.90;;;7.80;99.90;;;;;;5035812;28;20223;-71
2021/10/28 08:44:06;;;;;;;14.15;10.40;;;7.90;99.90;;;;;;5036200;28;20287;-72
2021/10/28 08:46:34;;;;;;;14.75;9.88;;;7.80;99.90;;;;;;5036033;28;20240;-72
2021/10/28 08:49:06;;;;;;;18.95;10.52;;;7.70;99.90;;;;;;5036105;28;20254;-72
2021/10/28 08:51:38;;;;;;;18.50;10.55;;;7.70;99.90;;;;;;5035913;28;20267;-72
2021/10/28 08:54:31;;;;;;;18.17;10.82;;;7.80;99.90;;;;;;5035813;28;20220;-71
2021/10/28 09:24:36;;;;;;;21.25;11.88;;;8.20;99.90;;;;;;5035573;28;20192;-72
2021/10/28 09:27:11;;;;;;;14.98;11.45;;;8.40;99.90;;;;;;5035448;28;20573;-72
2021/10/28 09:29:44;;;;;;;14.32;10.20;;;8.60;99.90;;;;;;5035323;28;20211;-72
2021/10/28 09:32:23;;;;;;;16.63;10.75;;;8.70;99.90;;;;;;5035107;28;20250;-72
2021/10/28 09:43:38;;;;;;;18.15;11.38;;;8.70;99.90;;;;;;5034777;28;20202;-71
2021/10/28 09:46:32;;;;;;;16.90;11.27;;;8.80;99.90;;;;;;5035047;28;20210;-72
2021/10/28 09:51:56;;;;;;;23.20;12.40;;;8.80;99.90;;;;;;5034490;28;20231;-72
2021/10/28 09:57:50;;;;;;;18.35;10.82;;;8.90;99.90;;;;;;5034419;28;20283;-72
2021/10/28 10:00:20;;;;;;;21.55;12.35;;;9.00;99.90;;;;;;5034736;28;20230;-72
2021/10/28 10:02:51;;;;;;;24.67;13.27;;;9.10;99.90;;;;;;5034436;28;20210;-72
2021/10/28 10:05:20;;;;;;;18.30;12.20;;;9.20;99.90;;;;;;5034808;28;20215;-72
2021/10/28 10:07:48;;;;;;;20.45;13.05;;;9.20;99.90;;;;;;5034450;28;20286;-72
2021/10/28 10:10:17;;;;;;;22.48;13.45;;;9.30;99.90;;;;;;5034419;28;20224;-72
2021/10/28 10:12:45;;;;;;;21.58;11.80;;;9.30;99.90;;;;;;5034147;28;20686;-72
2021/10/28 10:15:12;;;;;;;18.95;11.60;;;9.40;99.90;;;;;;5034408;28;20242;-72
2021/10/28 10:17:42;;;;;;;20.15;13.10;;;9.60;99.90;;;;;;5034784;28;20574;-72
2021/10/28 10:20:10;;;;;;;19.45;11.10;;;9.70;99.90;;;;;;5034508;28;20232;-72
2021/10/28 10:22:46;;;;;;;20.48;13.55;;;9.70;99.90;;;;;;5034251;28;20291;-72
2021/10/28 10:25:39;;;;;;;22.55;13.50;;;9.90;99.90;;;;;;5034397;28;20203;-72
2021/10/28 12:17:19;;;;;;;14.98;9.80;;;13.80;99.90;;;;;;5036803;28;20200;-72
2021/10/28 12:20:13;;;;;;;15.05;10.13;;;13.80;99.90;;;;;;5036961;28;20207;-73
2021/10/28 12:45:11;;;;;;;11.73;8.95;;;16.80;99.90;;;;;;5036374;28;20206;-73
2021/10/28 12:50:41;;;;;;;9.05;7.22;;;16.20;99.90;;;;;;5034048;28;20250;-72
2021/10/28 13:05:13;;;;;;;12.85;7.50;;;15.30;99.90;;;;;;5036198;28;20236;-72
2021/10/28 13:38:25;;;;;;;9.38;7.65;;;14.70;99.90;;;;;;4993950;28;20665;-72
2021/10/28 13:49:08;;;;;;;8.40;6.47;;;14.70;99.90;;;;;;5035426;28;20552;-72
2021/10/28 13:51:45;;;;;;;12.48;7.70;;;14.60;99.90;;;;;;5034948;28;20268;-72
2021/10/28 13:57:16;;;;;;;10.02;7.53;;;14.60;99.90;;;;;;5035024;28;20209;-72
2021/10/28 14:22:29;;;;;;;10.52;7.72;;;14.60;99.90;;;;;;5034420;28;20212;-72
2021/10/28 14:36:52;;;;;;;9.20;7.13;;;14.60;99.90;;;;;;4992939;28;20285;-72
2021/10/28 14:58:58;;;;;;;10.18;6.93;;;14.80;99.90;;;;;;5034002;28;20205;-72
2021/10/28 15:28:56;;;;;;;7.30;5.68;;;15.00;99.90;;;;;;5033891;28;20201;-72
2021/10/28 15:34:37;;;;;;;7.45;6.20;;;14.70;99.90;;;;;;4995443;28;20222;-73
2021/10/28 15:37:09;;;;;;;10.43;6.95;;;14.60;99.90;;;;;;5033420;28;20259;-72
2021/10/28 15:39:40;;;;;;;7.88;6.70;;;14.40;99.90;;;;;;5033585;28;20621;-72
2021/10/28 16:23:55;;;;;;;7.45;6.30;;;12.60;99.90;;;;;;5083656;28;20205;-72
2021/10/28 16:26:22;;;;;;;8.32;6.35;;;12.60;99.90;;;;;;5090533;28;20202;-72
2021/10/28 16:28:49;;;;;;;11.95;6.95;;;12.50;99.90;;;;;;5090506;28;20202;-72
2021/10/28 16:31:16;;;;;;;10.80;6.65;;;12.40;99.90;;;;;;5090197;28;20230;-73
2021/10/28 16:33:45;;;;;;;8.88;6.72;;;12.40;99.90;;;;;;5090352;28;20208;-73
2021/10/28 16:36:12;;;;;;;10.77;6.68;;;12.30;99.90;;;;;;5090263;28;20202;-72
2021/10/28 16:38:39;;;;;;;13.25;7.95;;;12.30;99.90;;;;;;5090519;28;20206;-73
2021/10/28 16:41:06;;;;;;;13.85;7.15;;;12.20;99.90;;;;;;5090087;28;20226;-73
2021/10/28 16:43:33;;;;;;;11.73;7.93;;;12.20;99.90;;;;;;5090433;28;20202;-72
2021/10/28 16:46:00;;;;;;;13.27;8.25;;;12.10;99.90;;;;;;5090303;28;20208;-72
2021/10/28 16:48:26;;;;;;;14.35;8.05;;;12.10;99.90;;;;;;5090121;28;20293;-72
2021/10/28 16:50:55;;;;;;;25.67;15.10;;;12.00;99.90;;;;;;5090025;28;20304;-72
2021/10/28 16:53:22;;;;;;;12.80;8.48;;;11.90;99.90;;;;;;5090076;28;20258;-72
2021/10/28 16:55:49;;;;;;;13.02;8.32;;;11.90;99.90;;;;;;5090219;28;20207;-72
2021/10/28 16:58:16;;;;;;;12.93;8.00;;;11.80;99.90;;;;;;5090085;28;20207;-73
2021/10/28 17:00:43;;;;;;;13.43;8.65;;;11.80;99.90;;;;;;5089702;28;20230;-72
2021/10/28 17:03:09;;;;;;;12.75;9.38;;;11.70;99.90;;;;;;5089569;28;20664;-73
2021/10/28 17:05:36;;;;;;;12.48;8.80;;;11.80;99.90;;;;;;5089937;28;20296;-72
2021/10/28 17:08:05;;;;;;;12.30;9.60;;;11.70;99.90;;;;;;5089956;28;20301;-73
2021/10/28 17:10:32;;;;;;;13.43;9.45;;;11.70;99.90;;;;;;5089800;28;20697;-73
2021/10/28 17:12:59;;;;;;;11.65;8.82;;;11.70;99.90;;;;;;5077022;28;20202;-73
2021/10/28 17:15:26;;;;;;;13.60;9.95;;;11.60;99.90;;;;;;5076310;28;20290;-73
2021/10/28 17:17:53;;;;;;;11.93;8.80;;;11.60;99.90;;;;;;5076018;28;20205;-73
2021/10/28 17:20:20;;;;;;;14.63;10.57;;;11.70;99.90;;;;;;5076117;28;20231;-72
2021/10/28 17:22:48;;;;;;;18.67;11.45;;;11.70;99.90;;;;;;5075923;28;20252;-72
2021/10/28 17:25:20;;;;;;;15.70;10.55;;;11.60;99.90;;;;;;5076097;28;20675;-73
2021/10/28 17:27:48;;;;;;;15.27;9.98;;;11.50;99.90;;;;;;5075868;28;20197;-73
2021/10/28 17:30:16;;;;;;;14.90;10.10;;;11.50;99.90;;;;;;5075928;28;20219;-73
2021/10/28 17:32:44;;;;;;;12.43;9.10;;;11.40;99.90;;;;;;5075899;28;20238;-73
2021/10/28 17:35:12;;;;;;;13.60;9.75;;;11.40;99.90;;;;;;5075968;28;20199;-72
2021/10/28 17:37:39;;;;;;;14.23;9.23;;;11.40;99.90;;;;;;5075850;28;20217;-73
2021/10/28 17:40:08;;;;;;;14.35;9.70;;;11.30;99.90;;;;;;5075585;28;20229;-73
2021/10/28 17:42:36;;;;;;;17.30;11.50;;;11.30;99.90;;;;;;5052319;28;20699;-73
2021/10/28 17:45:04;;;;;;;13.95;9.82;;;11.30;99.90;;;;;;5054817;28;20561;-72
2021/10/28 17:47:31;;;;;;;13.82;10.35;;;11.30;99.90;;;;;;5054647;28;20298;-73
2021/10/28 17:49:58;;;;;;;15.57;9.77;;;11.30;99.90;;;;;;5054306;28;20211;-73
2021/10/28 17:52:26;;;;;;;15.88;10.70;;;11.10;99.90;;;;;;5053904;28;20214;-73
2021/10/28 17:54:53;;;;;;;16.83;10.35;;;11.10;99.90;;;;;;5053786;28;20207;-75
2021/10/28 17:57:19;;;;;;;18.20;12.30;;;11.00;99.90;;;;;;5054150;28;20294;-74
2021/10/28 17:59:48;;;;;;;16.90;11.02;;;11.00;99.90;;;;;;5054263;28;20208;-74
2021/10/28 18:02:14;;;;;;;12.38;9.05;;;11.00;99.90;;;;;;5053872;28;20227;-76
2021/10/28 18:04:43;;;;;;;15.88;10.25;;;11.00;99.90;;;;;;5053848;28;20685;-76
2021/10/28 18:07:11;;;;;;;14.70;9.25;;;11.10;99.90;;;;;;5053726;28;20203;-75
2021/10/28 18:09:38;;;;;;;15.95;10.45;;;11.10;99.90;;;;;;5054292;28;20278;-74
2021/10/28 18:12:05;;;;;;;13.70;9.85;;;11.10;99.90;;;;;;5053951;28;20262;-74
2021/10/28 18:14:32;;;;;;;15.65;10.00;;;11.10;99.90;;;;;;5053842;28;20581;-74
2021/10/28 18:17:00;;;;;;;14.10;10.65;;;11.20;99.90;;;;;;5054024;28;20203;-72
2021/10/28 18:19:27;;;;;;;18.92;11.65;;;11.20;99.90;;;;;;5053963;28;20290;-74
2021/10/28 18:21:55;;;;;;;20.35;11.68;;;11.20;99.90;;;;;;5054075;28;20246;-73
2021/10/28 18:24:22;;;;;;;14.27;9.60;;;11.30;99.90;;;;;;5052884;28;20199;-73
2021/10/28 18:26:49;;;;;;;14.32;9.48;;;11.30;99.90;;;;;;5053583;28;20208;-74
2021/10/28 18:29:17;;;;;;;11.80;8.77;;;11.20;99.90;;;;;;5053734;28;20294;-73
2021/10/28 18:31:45;;;;;;;13.25;10.20;;;11.20;99.90;;;;;;5053893;28;20246;-73
2021/10/28 18:34:14;;;;;;;11.75;8.32;;;11.10;99.90;;;;;;5053377;28;20286;-71
2021/10/28 18:36:41;;;;;;;11.38;8.85;;;11.00;99.90;;;;;;5053482;28;20218;-73
2021/10/28 18:39:11;;;;;;;13.35;8.68;;;11.00;99.90;;;;;;5053684;28;20211;-73
2021/10/28 18:41:38;;;;;;;11.85;9.57;;;11.00;99.90;;;;;;5053256;28;20282;-72
2021/10/28 18:44:06;;;;;;;14.55;9.30;;;10.90;99.90;;;;;;5053173;28;20199;-72
2021/10/28 18:46:34;;;;;;;12.45;9.30;;;10.80;99.90;;;;;;5052762;28;20692;-73
2021/10/28 18:49:03;;;;;;;12.82;9.10;;;10.80;99.90;;;;;;5053574;28;20570;-72
2021/10/28 18:51:33;;;;;;;13.40;9.13;;;10.70;99.90;;;;;;5053233;28;20574;-73
2021/10/28 18:54:01;;;;;;;14.88;10.35;;;10.70;99.90;;;;;;5053027;28;20294;-72
2021/10/28 18:56:28;;;;;;;17.23;11.00;;;10.60;99.90;;;;;;5052860;28;20280;-73
2021/10/28 18:58:55;;;;;;;16.92;11.55;;;10.50;99.90;;;;;;5053099;28;20290;-74
2021/10/28 19:01:22;;;;;;;16.42;10.15;;;10.50;99.90;;;;;;5052580;28;20318;-73
2021/10/28 19:03:51;;;;;;;12.88;8.15;;;10.50;99.90;;;;;;5053048;28;20290;-73
2021/10/28 19:06:19;;;;;;;13.57;9.45;;;10.50;99.90;;;;;;5052880;28;20203;-73
2021/10/28 19:08:47;;;;;;;14.20;9.15;;;10.60;99.90;;;;;;5053017;28;20568;-73
2021/10/28 19:11:15;;;;;;;13.63;8.70;;;10.60;99.90;;;;;;5052899;28;20227;-74
2021/10/28 19:13:44;;;;;;;10.98;8.90;;;10.70;99.90;;;;;;5052384;28;20231;-75
2021/10/28 19:16:13;;;;;;;14.82;9.60;;;10.70;99.90;;;;;;5053063;28;20290;-75
2021/10/28 19:18:41;;;;;;;12.18;8.52;;;10.70;99.90;;;;;;5052998;28;20229;-74
2021/10/28 19:21:08;;;;;;;12.90;8.30;;;10.70;99.90;;;;;;5052584;28;20231;-74
2021/10/28 19:23:35;;;;;;;14.75;9.48;;;10.60;99.90;;;;;;5053513;28;20208;-73
2021/10/28 19:26:04;;;;;;;14.80;10.13;;;10.60;99.90;;;;;;5054201;28;20634;-76
2021/10/28 19:28:32;;;;;;;13.30;9.82;;;10.50;99.90;;;;;;5055671;28;20302;-76
2021/10/28 19:31:02;;;;;;;13.07;8.75;;;10.50;99.90;;;;;;5054007;28;20686;-77
2021/10/28 19:33:38;;;;;;;13.32;9.13;;;10.50;99.90;;;;;;5056033;28;20688;-74
2021/10/28 19:36:08;;;;;;;14.32;10.05;;;10.50;99.90;;;;;;5052600;28;20199;-74
2021/10/28 19:38:49;;;;;;;16.52;11.00;;;10.40;99.90;;;;;;5052555;28;20565;-73
2021/10/28 19:47:01;;;;;;;15.68;10.50;;;10.30;99.90;;;;;;4991345;28;20243;-75
2021/10/28 19:49:28;;;;;;;15.48;10.43;;;10.40;99.90;;;;;;5025681;28;20203;-74
2021/10/28 19:51:55;;;;;;;17.25;10.45;;;10.40;99.90;;;;;;5053546;28;20307;-73
2021/10/28 19:54:21;;;;;;;16.77;9.82;;;10.40;99.90;;;;;;5052685;28;20209;-74
2021/10/28 19:56:50;;;;;;;14.75;10.23;;;10.40;99.90;;;;;;5052775;28;20203;-74
2021/10/28 19:59:18;;;;;;;16.02;9.77;;;10.40;99.90;;;;;;5052031;28;20203;-74
2021/10/28 20:01:47;;;;;;;16.17;9.85;;;10.30;99.90;;;;;;5051588;28;20330;-73
2021/10/28 20:04:33;;;;;;;13.50;10.50;;;10.30;99.90;;;;;;5052334;28;20203;-73
2021/10/28 20:15:27;;;;;;;12.57;10.23;;;10.30;99.90;;;;;;5052039;28;20290;-75
2021/10/28 20:20:39;;;;;;;15.45;11.55;;;10.30;99.90;;;;;;5051974;28;20219;-75
2021/10/28 20:23:07;;;;;;;15.35;10.90;;;10.30;99.90;;;;;;5052204;28;20626;-74
2021/10/28 20:25:34;;;;;;;19.17;12.40;;;10.20;99.90;;;;;;5052024;28;20209;-74
2021/10/28 20:28:05;;;;;;;16.75;11.65;;;10.10;99.90;;;;;;5051965;28;20294;-74
2021/10/28 20:30:33;;;;;;;15.00;10.57;;;10.10;99.90;;;;;;5051811;28;20318;-74
2021/10/28 20:33:01;;;;;;;14.60;11.20;;;10.00;99.90;;;;;;5051860;28;20203;-74
2021/10/28 20:35:51;;;;;;;16.80;10.75;;;10.00;99.90;;;;;;5052006;28;20219;-74
2021/10/28 20:38:17;;;;;;;14.88;9.73;;;10.00;99.90;;;;;;5051710;28;20257;-74
2021/10/28 20:40:44;;;;;;;13.63;9.90;;;10.00;99.90;;;;;;5051888;28;20223;-74
2021/10/28 20:43:12;;;;;;;16.35;10.45;;;10.00;99.90;;;;;;5051835;28;20230;-74
2021/10/28 20:45:39;;;;;;;15.43;10.35;;;9.80;99.90;;;;;;5051575;28;20295;-74
2021/10/28 20:48:07;;;;;;;13.40;9.30;;;9.60;99.90;;;;;;5054947;28;20257;-74
2021/10/28 20:50:35;;;;;;;16.33;10.07;;;9.70;99.90;;;;;;5055812;28;20235;-72